Time;durP1;ratioP1;P1;durP2;ratioP2;P2;SDS_P1;SDS_P2;PMS_P1;PMS_P2;Temp;Humidity;BMP_temperature;BMP_pressure;BME280_temperature;BME280_humidity;BME280_pressure;Samples;Min_cycle;Max_cycle;Signal;HPM_P1;HPM_P2
2023/10/31 00:02:16;;;;;;;2.60;0.40;;;;;;;9.57;100.00;95302.41;4957699;28;20047;-70
2023/10/31 00:04:42;;;;;;;2.70;0.55;;;;;;;9.56;100.00;95300.84;4977742;28;20477;-69
2023/10/31 00:07:07;;;;;;;0.60;0.50;;;;;;;9.54;100.00;95309.47;4958866;28;20390;-68
2023/10/31 00:09:33;;;;;;;1.75;0.60;;;;;;;9.65;100.00;95305.91;4970074;28;20168;-68
2023/10/31 00:11:59;;;;;;;0.70;0.40;;;;;;;9.55;100.00;95311.00;4978336;28;20046;-68
2023/10/31 00:14:24;;;;;;;0.88;0.50;;;;;;;9.55;100.00;95302.03;4969530;28;20049;-67
2023/10/31 00:16:50;;;;;;;0.80;0.50;;;;;;;9.60;100.00;95309.03;4995356;28;20046;-68
2023/10/31 00:19:15;;;;;;;0.65;0.55;;;;;;;9.62;100.00;95310.22;4967730;28;20311;-69
2023/10/31 00:21:41;;;;;;;0.40;0.40;;;;;;;9.60;100.00;95309.84;4962996;28;20137;-68
2023/10/31 00:24:06;;;;;;;0.40;0.40;;;;;;;9.56;100.00;95318.03;4964620;28;20137;-68
2023/10/31 00:26:32;;;;;;;0.50;0.50;;;;;;;9.50;100.00;95316.88;4971480;28;20088;-68
2023/10/31 00:28:57;;;;;;;1.80;0.50;;;;;;;9.43;100.00;95322.34;4974285;28;20587;-69
2023/10/31 00:31:23;;;;;;;1.08;0.50;;;;;;;9.35;100.00;95316.09;4978035;28;20722;-69
2023/10/31 00:33:48;;;;;;;3.20;0.50;;;;;;;9.33;100.00;95309.50;4979126;28;20035;-71
2023/10/31 00:36:14;;;;;;;2.22;0.50;;;;;;;9.35;100.00;95302.44;4967690;28;20150;-70
2023/10/31 00:38:39;;;;;;;0.80;0.50;;;;;;;9.37;100.00;95302.84;4983248;28;20148;-70
2023/10/31 00:41:05;;;;;;;1.40;0.50;;;;;;;9.34;100.00;95306.34;4968968;28;20047;-66
2023/10/31 00:43:30;;;;;;;4.05;2.05;;;;;;;9.30;100.00;95315.72;4969248;28;20134;-68
2023/10/31 00:45:55;;;;;;;4.38;2.13;;;;;;;9.42;100.00;95322.72;4974390;28;20042;-69
2023/10/31 00:48:21;;;;;;;4.32;2.13;;;;;;;9.38;100.00;95328.19;4977307;28;20539;-68
2023/10/31 00:50:46;;;;;;;1.75;0.50;;;;;;;9.44;100.00;95329.38;4976807;28;20062;-67
2023/10/31 00:53:13;;;;;;;2.80;0.50;;;;;;;9.41;100.00;95334.84;4967391;28;20047;-68
2023/10/31 00:55:38;;;;;;;0.57;0.40;;;;;;;9.49;100.00;95337.19;4983249;28;20133;-70
2023/10/31 00:58:04;;;;;;;0.57;0.50;;;;;;;9.47;100.00;95339.53;4980661;28;20116;-68
2023/10/31 01:00:30;;;;;;;1.27;0.60;;;;;;;9.57;100.00;95340.69;4991447;28;20416;-69
2023/10/31 01:02:55;;;;;;;1.05;0.60;;;;;;;9.68;100.00;95352.38;4985444;28;20047;-69
2023/10/31 01:05:21;;;;;;;3.53;0.52;;;;;;;9.74;100.00;95369.94;4972461;28;20504;-69
2023/10/31 01:07:46;;;;;;;0.85;0.50;;;;;;;9.76;100.00;95369.56;4983271;28;20066;-69
2023/10/31 01:10:12;;;;;;;0.63;0.60;;;;;;;9.77;100.00;95369.13;4978159;28;20042;-68
2023/10/31 01:12:37;;;;;;;1.02;0.60;;;;;;;9.71;100.00;95369.94;4992122;28;20045;-68
2023/10/31 01:15:03;;;;;;;0.55;0.40;;;;;;;9.74;100.00;95372.69;4979493;28;20437;-67
2023/10/31 01:17:28;;;;;;;0.40;0.40;;;;;;;9.79;100.00;95389.84;4983705;28;20042;-67
2023/10/31 01:19:54;;;;;;;1.05;0.50;;;;;;;9.73;100.00;95392.97;4967017;28;20100;-68
2023/10/31 01:22:19;;;;;;;1.88;0.68;;;;;;;9.72;100.00;95404.31;4968957;28;20034;-67
2023/10/31 01:24:44;;;;;;;1.25;0.77;;;;;;;9.70;100.00;95401.19;4984730;28;20046;-67
2023/10/31 01:27:10;;;;;;;1.90;0.80;;;;;;;9.59;100.00;95392.22;4971313;28;20129;-68
2023/10/31 01:29:35;;;;;;;1.17;0.93;;;;;;;9.50;100.00;95393.38;4975944;28;20046;-68
2023/10/31 01:32:01;;;;;;;1.48;0.95;;;;;;;9.57;100.00;95403.53;4976968;28;20159;-68
2023/10/31 01:34:26;;;;;;;2.90;1.10;;;;;;;9.57;100.00;95398.06;4972256;28;20042;-69
2023/10/31 01:36:52;;;;;;;1.58;1.10;;;;;;;9.63;100.00;95409.41;4983933;28;20123;-68
2023/10/31 01:39:18;;;;;;;1.73;1.00;;;;;;;9.65;100.00;95407.06;4976411;28;20137;-68
2023/10/31 01:41:43;;;;;;;4.13;1.30;;;;;;;9.57;100.00;95398.06;4986019;28;20170;-69
2023/10/31 01:44:10;;;;;;;2.65;1.38;;;;;;;9.44;100.00;95392.22;4982813;28;20046;-67
2023/10/31 01:46:35;;;;;;;2.00;1.10;;;;;;;9.43;100.00;95387.16;4985710;28;20185;-69
2023/10/31 01:49:01;;;;;;;2.58;1.40;;;;;;;9.41;100.00;95384.03;4984927;28;20119;-69
2023/10/31 01:51:28;;;;;;;2.03;1.17;;;;;;;9.43;100.00;95382.47;4972102;28;20045;-68
2023/10/31 01:53:53;;;;;;;2.35;1.20;;;;;;;9.41;100.00;95379.34;4984680;28;20061;-68
2023/10/31 01:56:20;;;;;;;1.90;1.27;;;;;;;9.43;100.00;95395.34;4991682;28;20496;-68
2023/10/31 01:58:46;;;;;;;1.33;0.90;;;;;;;9.43;100.00;95400.81;4978042;28;20485;-68
2023/10/31 02:01:12;;;;;;;2.22;1.05;;;;;;;9.38;100.00;95396.50;4978262;28;20386;-69
2023/10/31 02:03:38;;;;;;;1.58;0.90;;;;;;;9.38;100.00;95391.03;4978764;28;20094;-68
2023/10/31 02:06:04;;;;;;;2.08;0.82;;;;;;;9.34;100.00;95393.00;4968938;28;20104;-67
2023/10/31 02:08:30;;;;;;;1.77;0.80;;;;;;;9.35;100.00;95387.16;4984066;28;20042;-69
2023/10/31 02:10:55;;;;;;;1.45;0.82;;;;;;;9.30;100.00;95389.50;4984947;28;20612;-68
2023/10/31 02:13:21;;;;;;;5.68;1.00;;;;;;;9.35;100.00;95384.44;4979973;28;20436;-68
2023/10/31 02:15:46;;;;;;;1.80;0.90;;;;;;;9.32;100.00;95400.81;4982157;28;20042;-69
2023/10/31 02:18:12;;;;;;;3.95;1.17;;;;;;;9.34;100.00;95401.19;4980253;28;20038;-68
2023/10/31 02:20:37;;;;;;;3.05;0.90;;;;;;;9.38;100.00;95400.03;4984551;28;20043;-69
2023/10/31 02:23:04;;;;;;;2.08;1.00;;;;;;;9.34;100.00;95404.72;4981343;28;20049;-68
2023/10/31 02:25:29;;;;;;;4.03;1.13;;;;;;;9.28;100.00;95408.25;4981604;28;20043;-67
2023/10/31 02:27:55;;;;;;;4.57;0.98;;;;;;;9.24;100.00;95408.25;4983950;28;20057;-67
2023/10/31 02:30:20;;;;;;;2.53;0.90;;;;;;;9.18;100.00;95405.13;4977706;28;20046;-67
2023/10/31 02:32:46;;;;;;;4.50;1.00;;;;;;;9.22;100.00;95413.31;4970120;28;20046;-67
2023/10/31 02:35:12;;;;;;;2.55;1.00;;;;;;;9.23;100.00;95411.34;4966351;28;20055;-68
2023/10/31 02:37:37;;;;;;;2.15;1.10;;;;;;;9.21;100.00;95414.47;4982289;28;20038;-68
2023/10/31 02:40:03;;;;;;;2.25;1.15;;;;;;;9.14;100.00;95411.72;4981290;28;20138;-67
2023/10/31 02:42:29;;;;;;;2.05;1.00;;;;;;;9.13;100.00;95410.97;4982505;28;20497;-69
2023/10/31 02:44:54;;;;;;;4.72;0.98;;;;;;;9.18;100.00;95412.50;4984594;28;20057;-70
2023/10/31 02:47:20;;;;;;;1.33;1.00;;;;;;;9.15;100.00;95421.50;4977743;28;20077;-70
2023/10/31 02:49:45;;;;;;;2.08;1.10;;;;;;;9.10;100.00;95414.47;4983131;28;20137;-70
2023/10/31 02:52:10;;;;;;;3.00;0.90;;;;;;;9.14;100.00;95417.19;4978219;28;20681;-69
2023/10/31 02:54:36;;;;;;;3.78;1.02;;;;;;;9.16;100.00;95417.59;4971502;28;20034;-70
2023/10/31 02:57:02;;;;;;;1.05;0.70;;;;;;;9.13;100.00;95421.88;4978881;28;20145;-70
2023/10/31 02:59:28;;;;;;;4.30;0.80;;;;;;;9.12;100.00;95420.31;4983729;28;20050;-70
2023/10/31 03:01:53;;;;;;;1.20;0.80;;;;;;;9.10;100.00;95430.84;4977354;28;20044;-69
2023/10/31 03:04:19;;;;;;;4.32;1.00;;;;;;;9.10;100.00;95432.81;4970675;28;20039;-69
2023/10/31 03:06:44;;;;;;;2.05;1.30;;;;;;;9.09;100.00;95429.31;4978260;28;20057;-70
2023/10/31 03:09:10;;;;;;;1.58;0.90;;;;;;;9.10;100.00;95433.56;4970550;28;20133;-69
2023/10/31 03:11:35;;;;;;;2.35;0.90;;;;;;;9.10;100.00;95436.31;4975212;28;20043;-69
2023/10/31 03:14:00;;;;;;;3.05;0.80;;;;;;;9.12;100.00;95441.38;4984263;28;20586;-69
2023/10/31 03:16:26;;;;;;;2.08;0.82;;;;;;;9.09;100.00;95434.75;4978582;28;20046;-68
2023/10/31 03:18:51;;;;;;;1.55;0.90;;;;;;;9.15;100.00;95437.88;4979547;28;20408;-68
2023/10/31 03:21:17;;;;;;;3.55;0.80;;;;;;;9.19;100.00;95431.25;4970373;28;20102;-69
2023/10/31 03:23:50;;;;;;;3.10;1.05;;;;;;;9.28;100.00;95439.06;4985201;28;20053;-68
2023/10/31 03:26:16;;;;;;;1.95;1.00;;;;;;;9.32;100.00;95428.91;4970326;28;20035;-67
2023/10/31 03:28:43;;;;;;;2.90;1.42;;;;;;;9.32;100.00;95426.19;4982049;28;20433;-67
2023/10/31 03:31:10;;;;;;;3.00;1.02;;;;;;;9.37;100.00;95435.97;4962418;28;20096;-66
2023/10/31 03:33:35;;;;;;;2.65;0.90;;;;;;;9.35;100.00;95436.34;4980559;28;20049;-67
2023/10/31 03:36:01;;;;;;;1.20;0.82;;;;;;;9.29;100.00;95437.91;4969222;28;20429;-69
2023/10/31 03:38:26;;;;;;;5.93;3.47;;;;;;;9.31;100.00;95445.69;4970410;28;20046;-67
2023/10/31 03:40:52;;;;;;;1.33;0.75;;;;;;;9.41;100.00;95435.97;4983298;28;20509;-68
2023/10/31 03:43:18;;;;;;;2.13;1.00;;;;;;;9.43;100.00;95439.84;4968587;28;20065;-68
2023/10/31 03:45:43;;;;;;;1.50;0.90;;;;;;;9.37;100.00;95438.69;4976609;28;20038;-68
2023/10/31 03:48:09;;;;;;;2.05;0.70;;;;;;;9.36;100.00;95446.13;4976709;28;20038;-68
2023/10/31 03:50:34;;;;;;;2.78;0.90;;;;;;;9.38;100.00;95443.78;4980674;28;20038;-69
2023/10/31 03:53:00;;;;;;;3.70;0.88;;;;;;;9.34;100.00;95447.66;4994469;28;20039;-68
2023/10/31 03:55:25;;;;;;;3.50;1.02;;;;;;;9.31;100.00;95451.16;4975009;28;20046;-70
2023/10/31 03:57:51;;;;;;;2.63;0.95;;;;;;;9.34;100.00;95455.84;4982551;28;20039;-69
2023/10/31 04:00:16;;;;;;;5.82;1.20;;;;;;;9.28;100.00;95465.63;4978853;28;20061;-69
2023/10/31 04:02:42;;;;;;;1.95;1.05;;;;;;;9.22;100.00;95469.88;4982178;28;20035;-69
2023/10/31 04:05:07;;;;;;;3.42;1.00;;;;;;;9.17;100.00;95466.38;4969891;28;20477;-70
2023/10/31 04:07:33;;;;;;;3.33;1.23;;;;;;;9.18;100.00;95470.69;4982652;28;20121;-69
2023/10/31 04:09:58;;;;;;;1.65;1.05;;;;;;;9.25;100.00;95475.34;4983061;28;20038;-69
2023/10/31 04:12:24;;;;;;;1.70;1.13;;;;;;;9.30;100.00;95474.19;4973417;28;20042;-68
2023/10/31 04:14:50;;;;;;;4.38;1.35;;;;;;;9.22;100.00;95478.88;4981982;28;20089;-69
2023/10/31 04:17:15;;;;;;;2.40;1.10;;;;;;;9.13;100.00;95487.44;4977803;28;20030;-69
2023/10/31 04:19:40;;;;;;;2.60;1.20;;;;;;;9.16;100.00;95485.88;4982480;28;20569;-68
2023/10/31 04:22:06;;;;;;;1.98;1.13;;;;;;;9.09;100.00;95486.66;4974079;28;20052;-68
2023/10/31 04:24:31;;;;;;;2.78;1.20;;;;;;;9.16;100.00;95489.41;4994007;28;20046;-68
2023/10/31 04:26:57;;;;;;;2.85;1.20;;;;;;;9.14;100.00;95497.19;4975936;28;20073;-69
2023/10/31 04:29:22;;;;;;;5.13;1.17;;;;;;;9.10;100.00;95503.81;4978187;28;20486;-68
2023/10/31 04:31:48;;;;;;;1.95;1.00;;;;;;;9.14;100.00;95508.13;4981972;28;20521;-68
2023/10/31 04:34:13;;;;;;;2.58;1.00;;;;;;;9.04;100.00;95502.63;4978421;28;20197;-69
2023/10/31 04:36:39;;;;;;;3.53;1.23;;;;;;;9.06;100.00;95508.50;4986645;28;20082;-69
2023/10/31 04:39:05;;;;;;;7.93;1.60;;;;;;;9.13;100.00;95516.72;4980705;28;20073;-70
2023/10/31 04:41:31;;;;;;;6.72;1.20;;;;;;;9.08;100.00;95508.91;4969533;28;20078;-69
2023/10/31 04:43:56;;;;;;;3.08;0.95;;;;;;;9.06;100.00;95517.47;4983836;28;20062;-69
2023/10/31 04:46:22;;;;;;;2.95;1.33;;;;;;;9.16;100.00;95510.47;4983606;28;20872;-69
2023/10/31 04:48:47;;;;;;;3.60;1.00;;;;;;;9.06;100.00;95520.19;4989142;28;20108;-69
2023/10/31 04:51:13;;;;;;;2.22;1.00;;;;;;;9.01;100.00;95523.31;4973916;28;20085;-68
2023/10/31 04:53:38;;;;;;;3.65;1.00;;;;;;;8.94;100.00;95517.81;4973912;28;20177;-67
2023/10/31 04:56:04;;;;;;;1.70;0.70;;;;;;;8.87;100.00;95521.28;5001774;28;20042;-69
2023/10/31 04:58:29;;;;;;;2.38;1.10;;;;;;;8.87;100.00;95526.75;4990983;28;20062;-68
2023/10/31 05:00:55;;;;;;;5.18;1.10;;;;;;;8.83;100.00;95531.41;4989101;28;20047;-69
2023/10/31 05:03:20;;;;;;;3.42;0.98;;;;;;;8.75;100.00;95535.28;4979787;28;20069;-67
2023/10/31 05:05:45;;;;;;;3.67;1.30;;;;;;;8.76;100.00;95539.56;4977359;28;20072;-66
2023/10/31 05:08:11;;;;;;;6.68;1.38;;;;;;;8.82;100.00;95526.34;4979559;28;20038;-68
2023/10/31 05:10:36;;;;;;;7.80;1.08;;;;;;;8.64;100.00;95537.94;4976993;28;20038;-68
2023/10/31 05:13:02;;;;;;;2.20;0.95;;;;;;;8.63;100.00;95532.91;4975971;28;20065;-67
2023/10/31 05:15:28;;;;;;;5.53;1.00;;;;;;;8.67;100.00;95530.97;4987765;28;20038;-69
2023/10/31 05:17:53;;;;;;;5.97;1.25;;;;;;;8.59;100.00;95535.59;4982976;28;20035;-69
2023/10/31 05:20:19;;;;;;;5.57;1.00;;;;;;;8.56;100.00;95531.69;4977914;28;20393;-69
2023/10/31 05:22:44;;;;;;;6.18;0.80;;;;;;;8.54;100.00;95541.44;4983983;28;20034;-68
2023/10/31 05:25:10;;;;;;;3.50;0.80;;;;;;;8.58;100.00;95548.44;4980645;28;20049;-69
2023/10/31 05:27:35;;;;;;;1.95;0.80;;;;;;;8.69;100.00;95545.78;4984831;28;20046;-68
2023/10/31 05:30:00;;;;;;;2.92;0.90;;;;;;;8.68;100.00;95554.34;5001510;23;20045;-70
2023/10/31 05:32:26;;;;;;;5.57;0.85;;;;;;;8.64;100.00;95551.59;5004370;28;20129;-71
2023/10/31 05:34:51;;;;;;;5.10;1.10;;;;;;;8.69;100.00;95553.19;5024939;28;20052;-71
2023/10/31 05:37:16;;;;;;;6.97;1.02;;;;;;;8.61;100.00;95552.38;5008266;28;20042;-70
2023/10/31 05:39:42;;;;;;;2.47;0.70;;;;;;;8.55;100.00;95556.63;5026621;28;20179;-71
2023/10/31 05:42:07;;;;;;;2.05;0.93;;;;;;;8.48;100.00;95560.09;5003007;28;20045;-70
2023/10/31 05:44:33;;;;;;;5.85;1.00;;;;;;;8.58;100.00;95562.09;4995623;28;20056;-71
2023/10/31 05:46:58;;;;;;;2.05;0.90;;;;;;;8.56;100.00;95560.94;5010370;28;20038;-71
2023/10/31 05:49:24;;;;;;;5.50;1.13;;;;;;;8.49;100.00;95566.34;5001740;28;20065;-71
2023/10/31 05:51:51;;;;;;;4.63;1.20;;;;;;;8.53;100.00;95558.94;5004693;28;20500;-71
2023/10/31 05:54:16;;;;;;;9.07;2.13;;;;;;;8.53;100.00;95558.94;5007157;28;20411;-71
2023/10/31 05:56:42;;;;;;;7.65;1.65;;;;;;;8.58;100.00;95562.09;5005352;28;20041;-71
2023/10/31 05:59:07;;;;;;;4.90;1.10;;;;;;;8.47;100.00;95565.94;4985367;28;20053;-71
2023/10/31 06:01:33;;;;;;;1.67;1.00;;;;;;;8.42;100.00;95561.63;5002535;28;20042;-72
2023/10/31 06:03:58;;;;;;;5.72;1.30;;;;;;;8.38;100.00;95567.00;5003847;28;20042;-71
2023/10/31 06:06:24;;;;;;;3.38;1.00;;;;;;;8.41;100.00;95562.75;5001864;28;20508;-71
2023/10/31 06:08:49;;;;;;;2.00;1.10;;;;;;;8.36;100.00;95582.22;5011273;28;20150;-71
2023/10/31 06:11:15;;;;;;;4.88;1.05;;;;;;;8.37;100.00;95581.03;4988743;28;20511;-71
2023/10/31 06:13:41;;;;;;;1.95;1.00;;;;;;;8.35;100.00;95580.63;5003056;28;20103;-71
2023/10/31 06:16:07;;;;;;;4.28;1.27;;;;;;;8.35;100.00;95580.63;5006712;28;20133;-70
2023/10/31 06:18:34;;;;;;;4.45;1.08;;;;;;;8.32;100.00;95582.19;5006165;28;20092;-71
2023/10/31 06:20:59;;;;;;;1.90;0.90;;;;;;;8.35;100.00;95592.31;5003781;28;20136;-71
2023/10/31 06:23:25;;;;;;;3.10;1.10;;;;;;;8.32;100.00;95593.09;4987369;28;20655;-71
2023/10/31 06:25:50;;;;;;;1.23;0.90;;;;;;;8.34;100.00;95593.50;4992143;28;20034;-72
2023/10/31 06:28:16;;;;;;;3.40;1.08;;;;;;;8.29;100.00;95599.31;5006589;28;20099;-72
2023/10/31 06:30:41;;;;;;;1.98;0.93;;;;;;;8.36;100.00;95599.34;5016910;28;20044;-71
2023/10/31 06:33:08;;;;;;;4.80;1.10;;;;;;;8.32;100.00;95606.75;5005962;28;20060;-72
2023/10/31 06:35:33;;;;;;;5.90;1.13;;;;;;;8.38;100.00;95604.44;5010773;28;20459;-71
2023/10/31 06:37:59;;;;;;;7.57;1.30;;;;;;;8.47;100.00;95606.88;4984628;28;20042;-71
2023/10/31 06:40:25;;;;;;;1.23;0.90;;;;;;;8.53;100.00;95614.31;4997244;28;20132;-73
2023/10/31 06:42:51;;;;;;;3.00;1.17;;;;;;;8.70;100.00;95621.06;4979641;28;20050;-71
2023/10/31 06:45:16;;;;;;;3.67;0.90;;;;;;;8.78;100.00;95633.56;4994039;28;20104;-73
2023/10/31 06:47:42;;;;;;;3.03;1.10;;;;;;;8.73;100.00;95622.22;5014883;28;20528;-71
2023/10/31 06:50:08;;;;;;;5.63;1.17;;;;;;;8.76;100.00;95635.91;4992962;28;20357;-72
2023/10/31 06:52:33;;;;;;;2.38;1.17;;;;;;;8.70;100.00;95634.72;5007707;28;20428;-71
2023/10/31 06:54:59;;;;;;;7.30;1.50;;;;;;;8.92;100.00;95634.84;4996894;28;20053;-71
2023/10/31 06:57:24;;;;;;;8.07;1.25;;;;;;;8.88;100.00;95648.47;4995224;28;20527;-71
2023/10/31 06:59:49;;;;;;;9.27;2.80;;;;;;;8.84;100.00;95642.22;4988807;28;20104;-73
2023/10/31 07:02:15;;;;;;;4.45;1.30;;;;;;;8.93;100.00;95650.84;4997823;28;20041;-73
2023/10/31 07:04:40;;;;;;;2.88;1.30;;;;;;;8.91;100.00;95658.63;5001144;28;20045;-72
2023/10/31 07:07:06;;;;;;;2.70;1.27;;;;;;;9.00;100.00;95658.28;4997649;28;20053;-72
2023/10/31 07:09:31;;;;;;;2.90;1.00;;;;;;;9.03;100.00;95662.22;4992830;28;20050;-72
2023/10/31 07:11:57;;;;;;;2.25;1.08;;;;;;;9.13;100.00;95662.28;4992736;28;20049;-71
2023/10/31 07:14:22;;;;;;;3.17;0.93;;;;;;;9.08;100.00;95670.03;4978448;28;20595;-70
2023/10/31 07:16:48;;;;;;;3.13;1.50;;;;;;;8.98;100.00;95669.59;5002543;28;20408;-71
2023/10/31 07:19:14;;;;;;;2.75;1.08;;;;;;;9.01;100.00;95664.53;4996821;28;20080;-71
2023/10/31 07:21:39;;;;;;;5.10;1.30;;;;;;;9.25;100.00;95663.88;4997296;28;20077;-72
2023/10/31 07:24:07;;;;;;;5.50;1.45;;;;;;;9.16;100.00;95660.72;5000252;28;20049;-71
2023/10/31 07:26:32;;;;;;;10.10;1.38;;;;;;;9.25;100.00;95663.09;4975516;28;20053;-72
2023/10/31 07:28:58;;;;;;;3.13;1.73;;;;;;;9.41;100.00;95654.59;5001379;28;20041;-73
2023/10/31 07:31:23;;;;;;;6.57;1.50;;;;;;;9.38;100.00;95665.13;4979353;28;20798;-71
2023/10/31 07:33:49;;;;;;;2.63;1.20;;;;;;;9.41;100.00;95655.34;4996589;28;20042;-72
2023/10/31 07:36:14;;;;;;;3.67;1.25;;;;;;;9.45;100.00;95669.81;4993035;28;20100;-71
2023/10/31 07:38:39;;;;;;;8.10;1.20;;;;;;;9.53;100.00;95670.66;5008959;28;20136;-72
2023/10/31 07:41:05;;;;;;;4.13;1.30;;;;;;;9.50;100.00;95676.88;4996014;28;20396;-73
2023/10/31 07:43:30;;;;;;;3.22;1.23;;;;;;;9.45;100.00;95680.75;4993849;28;20408;-72
2023/10/31 07:45:56;;;;;;;6.30;1.52;;;;;;;9.41;100.00;95682.69;4990669;28;20484;-72
2023/10/31 07:48:21;;;;;;;7.90;1.30;;;;;;;9.38;100.00;95686.97;4966881;28;20718;-73
2023/10/31 07:50:47;;;;;;;7.72;1.20;;;;;;;9.41;100.00;95681.91;5010058;28;20045;-72
2023/10/31 07:53:12;;;;;;;5.82;1.50;;;;;;;9.42;100.00;95681.53;5008191;28;20107;-72
2023/10/31 07:55:37;;;;;;;3.25;1.40;;;;;;;9.45;100.00;95683.47;4993359;28;20424;-72
2023/10/31 07:58:03;;;;;;;6.45;1.20;;;;;;;9.51;100.00;95684.69;4992886;28;20140;-73
2023/10/31 08:00:28;;;;;;;4.35;1.13;;;;;;;9.53;100.00;95678.84;5001579;28;20136;-73
2023/10/31 08:02:54;;;;;;;3.28;1.00;;;;;;;9.51;100.00;95681.19;5003358;28;20045;-72
2023/10/31 08:05:19;;;;;;;7.47;1.35;;;;;;;9.64;100.00;95689.81;4985003;28;20042;-72
2023/10/31 08:07:45;;;;;;;8.07;1.30;;;;;;;9.73;100.00;95690.25;5000505;28;20046;-71
2023/10/31 08:10:10;;;;;;;8.88;1.00;;;;;;;9.67;100.00;95681.63;4998382;28;20535;-72
2023/10/31 08:12:36;;;;;;;4.13;0.85;;;;;;;9.70;100.00;95691.78;5001392;28;20512;-72
2023/10/31 08:15:02;;;;;;;3.95;1.00;;;;;;;9.59;100.00;95685.50;4980939;28;20038;-73
2023/10/31 08:17:27;;;;;;;3.55;0.80;;;;;;;9.63;100.00;95689.03;4993823;28;20129;-72
2023/10/31 08:19:53;;;;;;;3.10;0.70;;;;;;;9.50;100.00;95696.00;4996162;28;20053;-72
2023/10/31 08:22:18;;;;;;;2.40;0.90;;;;;;;9.52;100.00;95694.44;4999684;28;20037;-72
2023/10/31 08:24:43;;;;;;;4.40;1.48;;;;;;;9.60;100.00;95698.00;5003047;28;20046;-72
2023/10/31 08:27:10;;;;;;;3.42;1.15;;;;;;;9.55;100.00;95704.63;4998092;28;20038;-72
2023/10/31 08:29:35;;;;;;;3.30;1.33;;;;;;;9.55;100.00;95709.31;4998073;28;20069;-72
2023/10/31 08:32:01;;;;;;;7.47;1.92;;;;;;;9.60;100.00;95708.94;4994713;28;20045;-72
2023/10/31 08:34:26;;;;;;;5.28;1.33;;;;;;;9.63;100.00;95707.38;4988842;28;20508;-72
2023/10/31 08:36:52;;;;;;;2.83;0.90;;;;;;;9.70;100.00;95705.44;4987234;28;20041;-74
2023/10/31 08:39:18;;;;;;;5.82;1.00;;;;;;;9.59;100.00;95720.25;4999798;28;20120;-72
2023/10/31 08:41:59;;;;;;;4.15;1.13;;;;;;;9.64;100.00;95723.41;5005137;28;20488;-71
2023/10/31 08:44:25;;;;;;;6.18;1.33;;;;;;;9.67;100.00;95728.13;4999164;28;20520;-71
2023/10/31 08:46:50;;;;;;;3.22;1.27;;;;;;;9.65;100.00;95724.97;5004504;28;20050;-73
2023/10/31 08:49:16;;;;;;;6.20;1.00;;;;;;;9.69;100.00;95717.56;4998707;28;20042;-73
2023/10/31 08:51:42;;;;;;;3.53;0.90;;;;;;;9.75;100.00;95720.72;4986441;28;20046;-72
2023/10/31 08:54:09;;;;;;;6.85;1.38;;;;;;;9.62;100.00;95711.28;4999781;28;20050;-72
2023/10/31 08:56:35;;;;;;;4.03;0.90;;;;;;;9.66;100.00;95712.09;5004329;28;20086;-72
2023/10/31 08:59:01;;;;;;;5.20;1.30;;;;;;;9.69;100.00;95717.56;5004266;28;20468;-72
2023/10/31 09:01:28;;;;;;;4.65;1.00;;;;;;;9.84;100.00;95723.09;4998952;28;20054;-72
2023/10/31 09:03:53;;;;;;;3.10;1.40;;;;;;;9.69;100.00;95714.06;5003976;28;20554;-72
2023/10/31 09:06:19;;;;;;;8.85;1.20;;;;;;;9.66;100.00;95723.03;5013650;28;20049;-72
2023/10/31 09:08:44;;;;;;;7.30;1.60;;;;;;;9.94;100.00;95727.81;5004284;28;20041;-72
2023/10/31 09:11:10;;;;;;;9.82;1.48;;;;;;;9.98;100.00;95728.59;4999346;28;20042;-72
2023/10/31 09:13:35;;;;;;;5.75;1.40;;;;;;;9.91;100.00;95729.38;5004375;28;20514;-73
2023/10/31 09:16:01;;;;;;;4.15;1.10;;;;;;;9.99;100.00;95721.94;5004681;28;20069;-71
2023/10/31 09:18:26;;;;;;;3.85;1.55;;;;;;;10.10;100.00;95725.53;4982746;28;20137;-72
2023/10/31 09:20:52;;;;;;;4.07;0.95;;;;;;;10.06;100.00;95729.41;4990699;28;20057;-71
2023/10/31 09:23:17;;;;;;;5.75;1.17;;;;;;;10.14;100.00;95731.78;4988708;28;20053;-72
2023/10/31 09:25:46;;;;;;;3.13;1.00;;;;;;;10.06;100.00;95715.72;5008403;28;20096;-72
2023/10/31 09:28:11;;;;;;;5.65;0.98;;;;;;;10.02;100.00;95723.94;4994025;28;20076;-72
2023/10/31 09:30:37;;;;;;;5.55;1.17;;;;;;;9.99;100.00;95730.16;5001288;28;20050;-72
2023/10/31 09:33:02;;;;;;;4.45;1.40;;;;;;;10.02;100.00;95732.13;4992741;28;20416;-72
2023/10/31 09:35:28;;;;;;;4.82;1.38;;;;;;;10.10;100.00;95736.47;4993125;28;20050;-73
2023/10/31 09:37:54;;;;;;;3.13;1.23;;;;;;;9.96;100.00;95730.94;4999546;28;20125;-72
2023/10/31 09:40:19;;;;;;;3.47;0.90;;;;;;;10.04;100.00;95735.25;4977325;28;20499;-72
2023/10/31 09:42:46;;;;;;;3.60;1.23;;;;;;;10.09;100.00;95736.84;5004059;28;20034;-72
2023/10/31 09:45:12;;;;;;;5.53;1.60;;;;;;;9.98;100.00;95736.03;4990490;28;20682;-72
2023/10/31 09:47:38;;;;;;;3.40;0.98;;;;;;;10.12;100.00;95741.56;5005338;28;20129;-72
2023/10/31 09:50:04;;;;;;;1.95;0.80;;;;;;;10.07;100.00;95733.72;4985844;28;20145;-73
2023/10/31 09:52:29;;;;;;;8.90;1.27;;;;;;;10.25;100.00;95736.50;4993768;28;20129;-72
2023/10/31 09:54:56;;;;;;;4.45;0.98;;;;;;;10.32;100.00;95740.06;4978688;28;20189;-72
2023/10/31 09:57:21;;;;;;;4.95;1.88;;;;;;;10.14;100.00;95740.00;4997410;28;20057;-72
2023/10/31 09:59:47;;;;;;;4.10;0.90;;;;;;;10.12;100.00;95734.13;5010189;28;20046;-73
2023/10/31 10:02:12;;;;;;;3.00;1.33;;;;;;;10.06;100.00;95737.63;4991434;28;20042;-73
2023/10/31 10:04:38;;;;;;;4.57;1.38;;;;;;;10.08;100.00;95747.03;5008811;28;20042;-73
2023/10/31 10:07:04;;;;;;;4.55;0.90;;;;;;;10.19;100.00;95743.50;5004056;28;20042;-71
2023/10/31 10:09:32;;;;;;;2.97;0.80;;;;;;;10.26;100.00;95738.84;4986031;28;20053;-74
2023/10/31 10:12:01;;;;;;;4.63;1.20;;;;;;;10.32;100.00;95742.03;4998895;28;20416;-72
2023/10/31 10:14:28;;;;;;;5.03;1.25;;;;;;;10.25;100.00;95740.00;4998612;28;20076;-72
2023/10/31 10:16:55;;;;;;;5.05;1.63;;;;;;;10.39;100.00;95742.03;4968718;28;20508;-72
2023/10/31 10:19:22;;;;;;;5.35;1.25;;;;;;;10.47;100.00;95743.59;4989873;28;20104;-73
2023/10/31 10:21:55;;;;;;;4.65;1.30;;;;;;;10.41;100.00;95745.16;4993840;28;20063;-73
2023/10/31 10:24:22;;;;;;;4.45;1.20;;;;;;;10.32;100.00;95742.78;4997616;28;20089;-71
2023/10/31 10:26:48;;;;;;;3.63;1.40;;;;;;;10.38;100.00;95747.88;4997868;28;20561;-72
2023/10/31 10:29:14;;;;;;;5.95;1.20;;;;;;;10.66;100.00;95752.59;4993054;28;20046;-72
2023/10/31 10:31:40;;;;;;;5.38;1.25;;;;;;;10.70;100.00;95758.88;4995503;28;20400;-72
2023/10/31 10:34:07;;;;;;;4.28;1.83;;;;;;;10.83;100.00;95767.50;4992920;28;20501;-72
2023/10/31 10:36:33;;;;;;;4.40;1.27;;;;;;;11.00;100.00;95757.69;4990510;28;20124;-71
2023/10/31 10:38:59;;;;;;;7.65;1.70;;;;;;;10.91;100.00;95771.78;4993113;28;20045;-72
2023/10/31 10:41:26;;;;;;;5.97;1.55;;;;;;;10.86;100.00;95766.72;4997652;28;20037;-72
2023/10/31 10:44:28;;;;;;;7.18;2.03;;;;;;;10.90;100.00;95771.00;4997689;28;20128;-72
2023/10/31 10:46:55;;;;;;;9.98;2.03;;;;;;;10.87;100.00;95774.53;4969911;28;20049;-72
2023/10/31 10:49:24;;;;;;;6.30;1.25;;;;;;;11.04;100.00;95767.50;4998709;28;20045;-72
2023/10/31 10:51:58;;;;;;;3.15;0.98;;;;;;;11.11;100.00;95761.22;4994083;28;20052;-72
2023/10/31 10:55:07;;;;;;;3.70;1.00;;;;;;;11.12;100.00;95772.97;4980786;28;20822;-71
2023/10/31 10:57:54;;;;;;;6.10;0.87;;;;;;;11.20;100.00;95767.09;4958679;28;20046;-71
2023/10/31 11:00:24;;;;;;;3.03;1.00;;;;;;;11.21;100.00;95768.66;4986442;28;20120;-72
2023/10/31 11:02:52;;;;;;;2.42;0.90;;;;;;;11.38;100.00;95771.75;4999934;28;20054;-71
2023/10/31 11:05:18;;;;;;;6.68;1.30;;;;;;;11.40;100.00;95772.16;5001324;28;20133;-72
2023/10/31 11:07:45;;;;;;;2.90;1.00;;;;;;;11.75;100.00;95778.72;4996778;28;20085;-72
2023/10/31 11:10:11;;;;;;;7.13;1.20;;;;;;;11.69;100.00;95764.63;4997674;28;20041;-72
2023/10/31 11:12:38;;;;;;;4.88;1.02;;;;;;;11.86;100.00;95768.50;5001236;28;20424;-72
2023/10/31 11:15:05;;;;;;;7.72;1.25;;;;;;;12.07;100.00;95775.91;4992875;28;20077;-73
2023/10/31 11:17:35;;;;;;;3.03;0.80;;;;;;;12.14;100.00;95780.59;5001111;28;20108;-71
2023/10/31 11:20:01;;;;;;;5.90;1.10;;;;;;;12.04;100.00;95780.19;5002266;28;20038;-71
2023/10/31 11:22:48;;;;;;;4.50;1.00;;;;;;;11.65;100.00;95772.88;4997726;28;20103;-72
2023/10/31 11:25:19;;;;;;;4.63;1.05;;;;;;;11.55;100.00;95776.44;4997126;28;20050;-72
2023/10/31 11:27:45;;;;;;;2.45;0.77;;;;;;;11.48;100.00;95779.97;5000993;28;20069;-72